Time;durP1;ratioP1;P1;durP2;ratioP2;P2;SDS_P1;SDS_P2;PMS_P1;PMS_P2;Temp;Humidity;BMP_temperature;BMP_pressure;BME280_temperature;BME280_humidity;BME280_pressure;Samples;Min_cycle;Max_cycle;Signal;HPM_P1;HPM_P2
2022/11/04 00:03:04;;;;;;;6.57;2.90;;;;;;;11.11;96.55;99321.53;20786038;22;19921;-76
2022/11/04 00:13:28;;;;;;;4.88;2.83;;;;;;;11.08;97.20;99316.59;20745493;28;20047;-76
2022/11/04 00:34:30;;;;;;;5.40;3.35;;;;;;;11.11;95.39;99310.31;20765837;28;20107;-76
2022/11/04 00:44:52;;;;;;;4.40;3.10;;;;;;;11.12;96.93;99331.00;20741386;28;20049;-75
2022/11/04 00:55:13;;;;;;;5.00;3.55;;;;;;;11.15;96.86;99315.09;20754550;28;20046;-75
2022/11/04 01:05:36;;;;;;;6.45;3.65;;;;;;;11.16;97.37;99314.13;20747409;28;20049;-76
2022/11/04 01:15:58;;;;;;;7.60;4.18;;;;;;;11.21;96.23;99322.34;20759533;28;20041;-76
2022/11/04 01:26:23;;;;;;;4.60;3.63;;;;;;;11.23;96.29;99293.53;20778609;28;20579;-76
2022/11/04 01:36:44;;;;;;;6.90;4.60;;;;;;;11.25;96.39;99297.63;20736653;28;20051;-75
2022/11/04 01:47:15;;;;;;;7.60;5.20;;;;;;;11.15;99.13;99307.28;20772991;28;20042;-75
2022/11/04 01:57:40;;;;;;;7.70;5.10;;;;;;;11.02;99.09;99298.91;20767033;28;20492;-75
2022/11/04 02:08:04;;;;;;;6.20;3.92;;;;;;;10.93;97.36;99306.75;20752263;28;20045;-73
2022/11/04 02:18:59;;;;;;;4.45;2.03;;;;;;;10.80;94.71;99306.19;20758453;28;20058;-74
2022/11/04 02:29:40;;;;;;;1.20;1.10;;;;;;;10.64;93.17;99338.00;20765106;28;20054;-75
2022/11/04 02:40:33;;;;;;;1.67;0.68;;;;;;;10.50;91.55;99388.84;20744391;28;20041;-75
2022/11/04 02:51:12;;;;;;;0.60;0.55;;;;;;;10.42;90.78;99418.16;20730380;28;20057;-73
2022/11/04 03:01:38;;;;;;;0.75;0.70;;;;;;;10.31;90.96;99404.44;20725311;28;20088;-72
2022/11/04 03:12:06;;;;;;;1.20;1.00;;;;;;;10.27;91.94;99416.06;20759223;28;20472;-72
2022/11/04 03:22:32;;;;;;;1.30;1.20;;;;;;;10.23;91.99;99420.72;20743354;28;20064;-74
2022/11/04 03:33:03;;;;;;;1.27;1.17;;;;;;;10.18;93.75;99459.34;20763499;28;20042;-74
2022/11/04 03:43:26;;;;;;;1.70;1.50;;;;;;;10.09;94.15;99461.88;20753052;28;20049;-74
2022/11/04 03:53:48;;;;;;;;;;;;;;;10.14;94.73;99472.75;20725782;28;20046;-74
2022/11/04 04:04:20;;;;;;;;;;;;;;;10.16;95.07;99496.88;20740493;28;20387;-75
2022/11/04 04:14:45;;;;;;;;;;;;;;;10.14;95.36;99509.22;20745554;28;20047;-68
2022/11/04 04:35:51;;;;;;;;;;;;;;;10.23;93.61;99534.47;20736019;28;19921;-69
2022/11/04 04:46:13;;;;;;;;;;;;;;;9.99;97.02;99555.53;20755248;28;19921;-69
2022/11/04 04:56:34;;;;;;;;;;;;;;;9.89;96.09;99577.25;20752715;28;20005;-69
2022/11/04 05:06:55;;;;;;;;;;;;;;;9.77;96.54;99579.06;20759629;28;19975;-68
2022/11/04 05:17:17;;;;;;;;;;;;;;;9.73;97.90;99589.84;20764073;28;19961;-68
2022/11/04 05:27:38;;;;;;;1.70;1.33;;;;;;;9.72;98.02;99580.38;20740699;28;20260;-68
2022/11/04 05:38:00;;;;;;;4.07;2.30;;;;;;;9.74;98.64;99604.50;20753207;28;20191;-69
2022/11/04 05:48:21;;;;;;;2.93;1.90;;;;;;;9.79;98.96;99623.16;20749618;28;20096;-70
2022/11/04 05:58:42;;;;;;;2.10;1.43;;;;;;;9.78;97.52;99639.72;20744091;28;20194;-69
2022/11/04 06:09:04;;;;;;;3.30;1.50;;;;;;;9.74;95.89;99656.56;20768708;22;20542;-73
2022/11/04 06:19:26;;;;;;;3.27;1.27;;;;;;;9.68;96.21;99673.44;20825149;28;20053;-73
2022/11/04 06:29:47;;;;;;;2.50;1.40;;;;;;;9.65;96.06;99696.28;20817163;28;20071;-73
2022/11/04 06:40:09;;;;;;;2.10;1.20;;;;;;;9.67;96.19;99699.59;20821079;28;20348;-73
2022/11/04 06:50:31;;;;;;;1.23;0.95;;;;;;;9.62;97.17;99710.38;20820673;28;20041;-72
2022/11/04 07:00:52;;;;;;;0.70;0.70;;;;;;;9.64;96.14;99746.66;20838788;28;20048;-73
2022/11/04 07:11:17;;;;;;;4.05;1.45;;;;;;;9.57;97.25;99774.13;20829056;28;20408;-73
2022/11/04 07:21:38;;;;;;;0.90;0.65;;;;;;;9.62;96.51;99805.81;20809548;28;20076;-73
2022/11/04 07:31:59;;;;;;;0.60;0.60;;;;;;;9.65;97.04;99819.44;20804004;28;20867;-72
2022/11/04 07:42:21;;;;;;;1.37;0.57;;;;;;;9.69;97.66;99835.63;20817952;28;20099;-72
2022/11/04 07:52:42;;;;;;;1.43;0.77;;;;;;;9.73;96.24;99853.47;20818293;28;20241;-72
2022/11/04 08:03:04;;;;;;;0.83;0.70;;;;;;;9.71;95.98;99859.75;20826067;28;20045;-73
2022/11/04 08:13:28;;;;;;;0.60;0.60;;;;;;;9.69;95.99;99872.06;20826604;28;20050;-72
2022/11/04 08:23:50;;;;;;;1.90;0.50;;;;;;;9.74;95.41;99875.16;20839244;28;20084;-73
2022/11/04 08:34:13;;;;;;;2.72;0.77;;;;;;;9.71;96.41;99872.78;20837280;28;20046;-72
2022/11/04 08:44:35;;;;;;;0.45;0.43;;;;;;;9.77;95.45;99904.38;20830247;28;20093;-73
2022/11/04 08:54:57;;;;;;;1.67;0.93;;;;;;;9.89;96.07;99902.59;20818089;28;20056;-73
2022/11/04 09:05:18;;;;;;;5.10;1.00;;;;;;;9.90;95.03;99927.66;20905154;28;20490;-70
2022/11/04 09:15:40;;;;;;;1.37;1.00;;;;;;;9.94;93.68;99916.94;20829244;28;20569;-73
2022/11/04 09:26:08;;;;;;;2.38;1.10;;;;;;;10.01;93.44;99936.34;20866868;28;20041;-74
2022/11/04 09:36:29;;;;;;;1.35;1.05;;;;;;;10.05;92.65;99955.16;20836623;28;20619;-73
2022/11/04 09:46:55;;;;;;;6.70;1.23;;;;;;;10.26;91.96;99990.00;20832915;28;20503;-73
2022/11/04 09:57:18;;;;;;;4.90;1.20;;;;;;;10.43;91.80;99994.75;20829370;28;20095;-75
2022/11/04 10:08:01;;;;;;;2.20;1.40;;;;;;;10.47;91.01;99985.75;20838278;28;20037;-74
2022/11/04 10:18:44;;;;;;;2.00;1.33;;;;;;;10.67;91.21;99994.50;20828790;28;20433;-73
2022/11/04 10:29:31;;;;;;;4.78;1.98;;;;;;;11.05;90.15;99989.72;20834909;28;20041;-73
2022/11/04 10:40:05;;;;;;;3.63;1.92;;;;;;;11.01;89.75;99993.50;20788610;28;20158;-73
2022/11/04 10:50:49;;;;;;;5.97;2.10;;;;;;;11.02;89.25;100018.63;20807832;28;20045;-73
2022/11/04 11:01:32;;;;;;;5.55;1.83;;;;;;;11.12;88.16;100053.47;20830365;28;20044;-73
2022/11/04 11:12:22;;;;;;;4.63;2.30;;;;;;;10.97;88.29;100039.03;20822725;28;20049;-73
2022/11/04 11:23:08;;;;;;;6.80;2.33;;;;;;;10.91;88.73;100063.00;20808121;28;20049;-74
2022/11/04 11:33:33;;;;;;;5.15;2.13;;;;;;;11.03;87.33;100080.28;20813187;28;20049;-74
2022/11/04 11:43:56;;;;;;;6.68;2.78;;;;;;;11.11;87.20;100093.53;20825300;28;20061;-74
2022/11/04 11:54:23;;;;;;;4.68;2.50;;;;;;;11.24;87.64;100088.19;20842859;28;20052;-75
2022/11/04 12:04:45;;;;;;;4.30;2.15;;;;;;;11.31;85.88;100100.66;20841666;28;20065;-75
2022/11/04 12:15:36;;;;;;;4.18;2.30;;;;;;;11.64;85.19;100088.38;20842354;28;20516;-74
2022/11/04 12:26:05;;;;;;;4.83;1.80;;;;;;;11.80;84.16;100093.16;20804476;28;20444;-73
2022/11/04 12:36:41;;;;;;;2.35;1.65;;;;;;;11.86;83.22;100098.72;20874929;28;20060;-73
2022/11/04 12:47:33;;;;;;;3.47;1.35;;;;;;;11.78;83.18;100101.13;20826085;28;20055;-74
2022/11/04 12:58:13;;;;;;;5.38;1.52;;;;;;;11.93;83.33;100102.50;20903567;28;20045;-73
2022/11/04 13:08:43;;;;;;;4.82;1.15;;;;;;;12.12;82.32;100114.88;20848759;28;20056;-74
2022/11/04 13:19:14;;;;;;;4.35;1.13;;;;;;;12.05;82.66;100111.13;20833930;28;20049;-74
2022/11/04 13:29:35;;;;;;;2.87;0.80;;;;;;;11.91;83.02;100116.66;20814492;28;20095;-74
2022/11/04 13:40:16;;;;;;;;;;;;;;;11.71;82.95;100114.81;20833657;28;20049;-75
2022/11/04 13:50:39;;;;;;;8.85;0.90;;;;;;;11.72;82.96;100132.94;20832751;28;19925;-74
2022/11/04 14:01:26;;;;;;;3.22;0.70;;;;;;;11.69;83.00;100148.03;20835920;28;20057;-76
2022/11/04 14:12:13;;;;;;;4.25;0.60;;;;;;;11.66;82.95;100185.66;20814328;28;20508;-75
2022/11/04 14:22:57;;;;;;;3.15;0.80;;;;;;;11.62;84.07;100186.84;20829207;28;20045;-75
2022/11/04 14:33:53;;;;;;;5.70;1.08;;;;;;;11.66;84.59;100208.31;20830915;28;20046;-74
2022/11/04 14:44:36;;;;;;;5.32;1.13;;;;;;;11.61;83.83;100213.91;20840072;28;20044;-75
2022/11/04 14:55:10;;;;;;;3.15;0.73;;;;;;;11.30;83.79;100236.41;20819208;28;20801;-75
2022/11/04 15:05:36;;;;;;;2.92;0.80;;;;;;;11.17;85.42;100254.81;20820853;28;20049;-75
2022/11/04 15:15:58;;;;;;;3.13;0.75;;;;;;;11.05;85.56;100275.75;20808538;28;20049;-75
2022/11/04 15:26:28;;;;;;;3.00;0.70;;;;;;;10.93;85.06;100287.13;20820801;28;20155;-74
2022/11/04 15:36:55;;;;;;;2.67;1.00;;;;;;;10.81;85.11;100314.91;20807312;28;20053;-75
2022/11/04 15:47:16;;;;;;;3.22;0.70;;;;;;;10.59;86.19;100324.41;20699021;28;20050;-75
2022/11/04 15:57:39;;;;;;;2.00;0.80;;;;;;;10.36;87.01;100329.63;20685243;28;20136;-74
2022/11/04 16:08:21;;;;;;;3.08;0.90;;;;;;;10.18;87.00;100349.19;20684143;28;20071;-67
2022/11/04 16:18:48;;;;;;;2.75;0.80;;;;;;;10.03;87.67;100352.84;20671558;28;20072;-66
2022/11/04 16:29:21;;;;;;;3.88;1.00;;;;;;;9.92;88.37;100353.56;20660218;28;20046;-67
2022/11/04 16:39:44;;;;;;;3.63;1.10;;;;;;;9.79;89.18;100357.09;20719427;28;20131;-67
2022/11/04 16:50:14;;;;;;;5.20;1.52;;;;;;;9.65;89.12;100383.25;20744323;28;20157;-66
2022/11/04 17:00:35;;;;;;;6.18;1.70;;;;;;;9.60;90.22;100387.94;20726053;28;20728;-68
2022/11/04 17:10:57;;;;;;;5.70;1.70;;;;;;;9.44;90.24;100392.50;20684878;28;20220;-67
2022/11/04 17:21:19;;;;;;;10.10;1.77;;;;;;;9.38;90.47;100392.91;20690722;28;20114;-67
2022/11/04 17:31:40;;;;;;;;;;;;;;;9.17;91.30;100409.91;20684378;28;20327;-67
2022/11/04 17:52:43;;;;;;;4.95;2.13;;;;;;;8.96;92.04;100447.72;20673103;28;20469;-67
2022/11/04 18:03:05;;;;;;;4.65;2.00;;;;;;;8.79;92.45;100445.34;20681201;28;20187;-65
2022/11/04 18:13:27;;;;;;;6.95;2.25;;;;;;;8.69;93.32;100453.81;20667946;28;20107;-64
2022/11/04 18:23:49;;;;;;;6.38;2.35;;;;;;;8.59;93.90;100470.09;20739381;23;20051;-72
2022/11/04 18:34:12;;;;;;;7.23;2.77;;;;;;;8.44;94.62;100478.84;20720249;28;20487;-72
2022/11/04 18:44:34;;;;;;;7.20;2.67;;;;;;;8.31;94.79;100488.28;20706044;28;20045;-72
2022/11/04 18:54:56;;;;;;;5.05;2.67;;;;;;;8.31;94.79;100489.13;20723442;28;20484;-71
2022/11/04 19:05:17;;;;;;;8.07;3.10;;;;;;;8.21;95.49;100494.97;20709488;28;20096;-71
2022/11/04 19:15:39;;;;;;;8.57;3.47;;;;;;;8.13;96.33;100499.75;20721468;28;20168;-72
2022/11/04 19:26:16;;;;;;;8.43;3.67;;;;;;;8.06;96.11;100503.63;20719201;28;20660;-72
2022/11/04 19:36:26;;;;;;;9.75;3.15;;;;;;;8.03;96.84;100516.78;20739272;23;20080;-72
2022/11/04 19:46:48;;;;;;;10.77;3.17;;;;;;;8.02;96.54;100518.56;20726390;28;20158;-72
2022/11/04 19:57:09;;;;;;;4.80;3.00;;;;;;;7.86;97.67;100532.50;20710306;28;20049;-72
2022/11/04 20:07:32;;;;;;;10.47;3.43;;;;;;;7.73;97.96;100541.91;20729523;28;20095;-73
2022/11/04 20:17:53;;;;;;;8.73;3.60;;;;;;;7.69;98.13;100556.00;20755325;28;20049;-72
2022/11/04 20:28:15;;;;;;;10.87;4.40;;;;;;;7.60;98.61;100572.06;20739841;28;20416;-71
2022/11/04 20:38:36;;;;;;;15.90;4.47;;;;;;;7.51;99.59;100601.13;20740796;28;20114;-72
2022/11/04 20:48:58;;;;;;;;;;;;;;;7.44;100.00;100610.16;20738889;28;20676;-71
2022/11/04 20:59:19;;;;;;;11.80;4.40;;;;;;;7.43;99.25;100631.00;20752507;28;19958;-71
2022/11/04 21:09:41;;;;;;;10.70;4.07;;;;;;;7.38;99.57;100644.22;20724425;28;20046;-71
2022/11/04 21:20:03;;;;;;;9.30;3.50;;;;;;;7.32;99.84;100654.09;20736791;28;20387;-71
2022/11/04 21:30:24;;;;;;;7.85;3.50;;;;;;;7.28;99.65;100660.34;20735577;28;20041;-71
2022/11/04 21:41:21;;;;;;;7.30;3.13;;;;;;;7.31;100.00;100673.16;20746103;28;20049;-71
2022/11/04 21:51:42;;;;;;;12.25;3.75;;;;;;;7.16;100.00;100682.56;20741812;28;20737;-71
2022/11/04 22:02:03;;;;;;;9.20;3.73;;;;;;;7.13;99.86;100687.91;20742647;28;20140;-71
2022/11/04 22:12:25;;;;;;;11.63;3.90;;;;;;;7.14;99.49;100702.53;20758720;28;20136;-72
2022/11/04 22:22:47;;;;;;;7.53;3.10;;;;;;;7.10;99.37;100706.25;20743823;28;20068;-72
2022/11/04 22:33:08;;;;;;;8.90;3.33;;;;;;;7.01;99.51;100711.88;20752694;28;20250;-71
2022/11/04 22:43:31;;;;;;;11.30;3.50;;;;;;;7.09;99.44;100720.09;20741354;28;20744;-72
2022/11/04 22:53:54;;;;;;;11.38;3.75;;;;;;;7.11;99.39;100725.19;20751781;28;20072;-71
2022/11/04 23:04:21;;;;;;;11.70;3.75;;;;;;;7.17;99.06;100732.66;20752837;28;20053;-72
2022/11/04 23:25:24;;;;;;;11.27;3.33;;;;;;;7.06;98.40;100732.38;20751850;28;21616;-72
